sensor_id;sensor_type;location;lat;lon;timestamp;temperature;humidity
16114;DHT22;8161;-33.910;151.156;2022-10-16T00:01:42;25.00;99.90
16114;DHT22;8161;-33.910;151.156;2022-10-16T00:04:10;25.00;99.90
16114;DHT22;8161;-33.910;151.156;2022-10-16T00:06:38;25.10;99.90
16114;DHT22;8161;-33.910;151.156;2022-10-16T00:09:06;25.20;99.90
16114;DHT22;8161;-33.910;151.156;2022-10-16T00:11:37;25.30;99.90
16114;DHT22;8161;-33.910;151.156;2022-10-16T00:14:09;25.10;99.90
16114;DHT22;8161;-33.910;151.156;2022-10-16T00:16:37;24.90;99.90
16114;DHT22;8161;-33.910;151.156;2022-10-16T00:19:05;25.00;99.90
16114;DHT22;8161;-33.910;151.156;2022-10-16T00:21:32;25.00;99.90
16114;DHT22;8161;-33.910;151.156;2022-10-16T00:24:07;24.90;99.90
16114;DHT22;8161;-33.910;151.156;2022-10-16T00:26:38;24.90;99.90
16114;DHT22;8161;-33.910;151.156;2022-10-16T00:29:06;25.00;99.90
16114;DHT22;8161;-33.910;151.156;2022-10-16T00:31:33;24.90;99.90
16114;DHT22;8161;-33.910;151.156;2022-10-16T00:34:01;24.70;99.90
16114;DHT22;8161;-33.910;151.156;2022-10-16T00:36:29;24.90;99.90
16114;DHT22;8161;-33.910;151.156;2022-10-16T00:38:57;25.00;99.90
16114;DHT22;8161;-33.910;151.156;2022-10-16T00:41:27;24.90;99.90
16114;DHT22;8161;-33.910;151.156;2022-10-16T00:43:57;24.80;99.90
16114;DHT22;8161;-33.910;151.156;2022-10-16T00:46:44;25.00;99.90
16114;DHT22;8161;-33.910;151.156;2022-10-16T00:49:16;25.20;99.90
16114;DHT22;8161;-33.910;151.156;2022-10-16T00:51:50;25.20;99.90
16114;DHT22;8161;-33.910;151.156;2022-10-16T00:54:29;25.40;99.90
16114;DHT22;8161;-33.910;151.156;2022-10-16T00:57:02;25.40;99.90
16114;DHT22;8161;-33.910;151.156;2022-10-16T00:59:38;25.40;99.90
16114;DHT22;8161;-33.910;151.156;2022-10-16T01:02:09;25.50;99.90
16114;DHT22;8161;-33.910;151.156;2022-10-16T01:04:42;25.60;99.90
16114;DHT22;8161;-33.910;151.156;2022-10-16T01:13:13;25.10;99.90
16114;DHT22;8161;-33.910;151.156;2022-10-16T01:15:55;25.10;99.90
16114;DHT22;8161;-33.910;151.156;2022-10-16T01:18:40;25.10;99.90
16114;DHT22;8161;-33.910;151.156;2022-10-16T01:21:29;25.10;99.90
16114;DHT22;8161;-33.910;151.156;2022-10-16T01:24:09;25.00;99.90
16114;DHT22;8161;-33.910;151.156;2022-10-16T01:29:23;24.70;99.90
16114;DHT22;8161;-33.910;151.156;2022-10-16T01:31:57;24.70;99.90
16114;DHT22;8161;-33.910;151.156;2022-10-16T01:34:38;24.70;99.90
16114;DHT22;8161;-33.910;151.156;2022-10-16T01:37:13;24.80;99.90
16114;DHT22;8161;-33.910;151.156;2022-10-16T01:39:44;25.10;99.90
16114;DHT22;8161;-33.910;151.156;2022-10-16T01:42:21;25.40;99.90
16114;DHT22;8161;-33.910;151.156;2022-10-16T01:44:54;25.80;99.90
16114;DHT22;8161;-33.910;151.156;2022-10-16T01:47:24;26.00;99.90
16114;DHT22;8161;-33.910;151.156;2022-10-16T01:49:53;26.30;99.90
16114;DHT22;8161;-33.910;151.156;2022-10-16T01:52:23;26.60;99.90
16114;DHT22;8161;-33.910;151.156;2022-10-16T01:54:54;26.80;99.90
16114;DHT22;8161;-33.910;151.156;2022-10-16T01:57:24;26.80;99.90
16114;DHT22;8161;-33.910;151.156;2022-10-16T01:59:56;26.80;99.90
16114;DHT22;8161;-33.910;151.156;2022-10-16T02:02:28;26.90;99.90
16114;DHT22;8161;-33.910;151.156;2022-10-16T02:05:02;26.90;99.90
16114;DHT22;8161;-33.910;151.156;2022-10-16T02:07:30;27.00;99.90
16114;DHT22;8161;-33.910;151.156;2022-10-16T02:09:57;27.10;99.90
16114;DHT22;8161;-33.910;151.156;2022-10-16T02:12:30;27.00;99.90
16114;DHT22;8161;-33.910;151.156;2022-10-16T02:14:58;27.00;99.90
16114;DHT22;8161;-33.910;151.156;2022-10-16T02:17:26;27.10;99.90
16114;DHT22;8161;-33.910;151.156;2022-10-16T02:19:55;27.10;99.90
16114;DHT22;8161;-33.910;151.156;2022-10-16T02:22:29;27.10;99.90
16114;DHT22;8161;-33.910;151.156;2022-10-16T02:27:46;27.00;99.90
16114;DHT22;8161;-33.910;151.156;2022-10-16T02:30:32;27.00;99.90
16114;DHT22;8161;-33.910;151.156;2022-10-16T02:33:02;27.10;99.90
16114;DHT22;8161;-33.910;151.156;2022-10-16T02:35:32;27.20;99.90
16114;DHT22;8161;-33.910;151.156;2022-10-16T02:38:00;27.30;99.90
16114;DHT22;8161;-33.910;151.156;2022-10-16T02:40:28;27.30;99.90
16114;DHT22;8161;-33.910;151.156;2022-10-16T02:42:55;27.30;99.90
16114;DHT22;8161;-33.910;151.156;2022-10-16T02:45:23;27.40;99.90
16114;DHT22;8161;-33.910;151.156;2022-10-16T02:47:51;27.30;99.90
16114;DHT22;8161;-33.910;151.156;2022-10-16T02:50:19;27.30;99.90
16114;DHT22;8161;-33.910;151.156;2022-10-16T02:52:46;27.40;99.90
16114;DHT22;8161;-33.910;151.156;2022-10-16T02:55:13;27.50;99.90
16114;DHT22;8161;-33.910;151.156;2022-10-16T02:57:41;27.50;99.90
16114;DHT22;8161;-33.910;151.156;2022-10-16T03:00:10;27.50;99.90
16114;DHT22;8161;-33.910;151.156;2022-10-16T03:02:38;27.50;99.90
16114;DHT22;8161;-33.910;151.156;2022-10-16T03:05:07;27.10;99.90
16114;DHT22;8161;-33.910;151.156;2022-10-16T03:07:35;27.10;99.90
16114;DHT22;8161;-33.910;151.156;2022-10-16T03:10:02;27.20;99.90
16114;DHT22;8161;-33.910;151.156;2022-10-16T03:12:30;26.90;99.90
16114;DHT22;8161;-33.910;151.156;2022-10-16T03:14:58;26.80;99.90
16114;DHT22;8161;-33.910;151.156;2022-10-16T03:17:25;26.60;99.90
16114;DHT22;8161;-33.910;151.156;2022-10-16T03:19:52;26.50;99.90
16114;DHT22;8161;-33.910;151.156;2022-10-16T03:22:19;26.50;99.90
16114;DHT22;8161;-33.910;151.156;2022-10-16T03:24:47;26.60;99.90
16114;DHT22;8161;-33.910;151.156;2022-10-16T03:27:14;26.80;99.90
16114;DHT22;8161;-33.910;151.156;2022-10-16T03:29:41;26.70;99.90
16114;DHT22;8161;-33.910;151.156;2022-10-16T03:32:09;26.70;99.90
16114;DHT22;8161;-33.910;151.156;2022-10-16T03:34:36;26.90;99.90
16114;DHT22;8161;-33.910;151.156;2022-10-16T03:37:04;27.10;99.90
16114;DHT22;8161;-33.910;151.156;2022-10-16T03:39:31;27.30;99.90
16114;DHT22;8161;-33.910;151.156;2022-10-16T03:41:58;27.50;99.90
16114;DHT22;8161;-33.910;151.156;2022-10-16T03:44:26;27.70;99.90
16114;DHT22;8161;-33.910;151.156;2022-10-16T03:46:53;27.80;99.90
16114;DHT22;8161;-33.910;151.156;2022-10-16T03:49:20;28.00;99.90
16114;DHT22;8161;-33.910;151.156;2022-10-16T03:51:48;28.00;99.90
16114;DHT22;8161;-33.910;151.156;2022-10-16T03:54:15;28.10;99.90
16114;DHT22;8161;-33.910;151.156;2022-10-16T03:56:42;28.10;99.90
16114;DHT22;8161;-33.910;151.156;2022-10-16T03:59:09;28.20;99.90
16114;DHT22;8161;-33.910;151.156;2022-10-16T04:01:37;28.20;99.90
16114;DHT22;8161;-33.910;151.156;2022-10-16T04:04:04;28.30;99.90
16114;DHT22;8161;-33.910;151.156;2022-10-16T04:06:31;28.00;99.90
16114;DHT22;8161;-33.910;151.156;2022-10-16T04:08:59;27.70;99.90
16114;DHT22;8161;-33.910;151.156;2022-10-16T04:11:26;27.30;99.90
16114;DHT22;8161;-33.910;151.156;2022-10-16T04:13:54;27.40;99.90
16114;DHT22;8161;-33.910;151.156;2022-10-16T04:16:22;27.60;99.90
16114;DHT22;8161;-33.910;151.156;2022-10-16T04:18:49;27.70;99.90
16114;DHT22;8161;-33.910;151.156;2022-10-16T04:21:16;27.60;99.90
16114;DHT22;8161;-33.910;151.156;2022-10-16T04:23:43;27.70;99.90
16114;DHT22;8161;-33.910;151.156;2022-10-16T04:26:11;27.50;99.90
16114;DHT22;8161;-33.910;151.156;2022-10-16T04:28:38;27.60;99.90
16114;DHT22;8161;-33.910;151.156;2022-10-16T04:31:07;27.70;99.90
16114;DHT22;8161;-33.910;151.156;2022-10-16T04:33:34;27.90;99.90
16114;DHT22;8161;-33.910;151.156;2022-10-16T04:36:02;28.10;99.90
16114;DHT22;8161;-33.910;151.156;2022-10-16T04:38:30;28.30;99.90
16114;DHT22;8161;-33.910;151.156;2022-10-16T04:40:57;28.50;99.90
16114;DHT22;8161;-33.910;151.156;2022-10-16T04:43:26;28.30;99.90
16114;DHT22;8161;-33.910;151.156;2022-10-16T04:45:53;28.20;99.90
16114;DHT22;8161;-33.910;151.156;2022-10-16T04:48:21;28.20;99.90
16114;DHT22;8161;-33.910;151.156;2022-10-16T04:50:48;28.20;99.90
16114;DHT22;8161;-33.910;151.156;2022-10-16T04:53:15;28.20;99.90
16114;DHT22;8161;-33.910;151.156;2022-10-16T04:55:43;28.30;99.90
16114;DHT22;8161;-33.910;151.156;2022-10-16T04:58:10;28.20;99.90
16114;DHT22;8161;-33.910;151.156;2022-10-16T05:00:38;28.30;99.90
16114;DHT22;8161;-33.910;151.156;2022-10-16T05:03:08;28.50;99.90
16114;DHT22;8161;-33.910;151.156;2022-10-16T05:05:36;28.80;99.90
16114;DHT22;8161;-33.910;151.156;2022-10-16T05:08:04;28.90;99.90
16114;DHT22;8161;-33.910;151.156;2022-10-16T05:10:31;29.00;99.90
16114;DHT22;8161;-33.910;151.156;2022-10-16T05:12:58;29.20;99.90
16114;DHT22;8161;-33.910;151.156;2022-10-16T05:15:25;29.30;99.90
16114;DHT22;8161;-33.910;151.156;2022-10-16T05:17:54;29.50;99.90
16114;DHT22;8161;-33.910;151.156;2022-10-16T05:20:22;29.50;99.90
16114;DHT22;8161;-33.910;151.156;2022-10-16T05:22:50;29.40;99.90
16114;DHT22;8161;-33.910;151.156;2022-10-16T05:25:17;29.40;99.90
16114;DHT22;8161;-33.910;151.156;2022-10-16T05:27:48;29.40;99.90
16114;DHT22;8161;-33.910;151.156;2022-10-16T05:30:16;29.40;99.90
16114;DHT22;8161;-33.910;151.156;2022-10-16T05:32:48;29.40;99.90
16114;DHT22;8161;-33.910;151.156;2022-10-16T05:35:16;29.30;99.90
16114;DHT22;8161;-33.910;151.156;2022-10-16T05:37:45;29.10;99.90
16114;DHT22;8161;-33.910;151.156;2022-10-16T05:40:12;29.00;99.90
16114;DHT22;8161;-33.910;151.156;2022-10-16T05:42:41;28.90;99.90
16114;DHT22;8161;-33.910;151.156;2022-10-16T05:45:10;28.90;99.90
16114;DHT22;8161;-33.910;151.156;2022-10-16T05:47:38;28.80;99.90
16114;DHT22;8161;-33.910;151.156;2022-10-16T05:50:06;28.80;99.90
16114;DHT22;8161;-33.910;151.156;2022-10-16T05:52:33;28.80;99.90
16114;DHT22;8161;-33.910;151.156;2022-10-16T05:55:01;28.80;99.90
16114;DHT22;8161;-33.910;151.156;2022-10-16T05:57:28;28.80;99.90
16114;DHT22;8161;-33.910;151.156;2022-10-16T05:59:56;28.90;99.90
16114;DHT22;8161;-33.910;151.156;2022-10-16T06:02:24;28.60;99.90
16114;DHT22;8161;-33.910;151.156;2022-10-16T06:04:54;28.70;99.90
16114;DHT22;8161;-33.910;151.156;2022-10-16T06:07:22;28.60;99.90
16114;DHT22;8161;-33.910;151.156;2022-10-16T06:09:53;28.40;99.90
16114;DHT22;8161;-33.910;151.156;2022-10-16T06:12:21;28.30;99.90
16114;DHT22;8161;-33.910;151.156;2022-10-16T06:14:48;28.20;99.90
16114;DHT22;8161;-33.910;151.156;2022-10-16T06:17:16;28.00;99.90
16114;DHT22;8161;-33.910;151.156;2022-10-16T06:19:44;28.00;99.90
16114;DHT22;8161;-33.910;151.156;2022-10-16T06:22:11;28.00;99.90
16114;DHT22;8161;-33.910;151.156;2022-10-16T06:24:39;28.10;99.90
16114;DHT22;8161;-33.910;151.156;2022-10-16T06:27:07;28.10;99.90
16114;DHT22;8161;-33.910;151.156;2022-10-16T06:29:34;28.00;99.90
16114;DHT22;8161;-33.910;151.156;2022-10-16T06:32:01;27.90;99.90
16114;DHT22;8161;-33.910;151.156;2022-10-16T06:34:28;27.80;99.90
16114;DHT22;8161;-33.910;151.156;2022-10-16T06:36:56;27.70;99.90
16114;DHT22;8161;-33.910;151.156;2022-10-16T06:39:23;27.60;99.90
16114;DHT22;8161;-33.910;151.156;2022-10-16T06:41:50;27.40;99.90
16114;DHT22;8161;-33.910;151.156;2022-10-16T06:44:18;27.00;99.90
16114;DHT22;8161;-33.910;151.156;2022-10-16T06:46:45;26.80;99.90
16114;DHT22;8161;-33.910;151.156;2022-10-16T06:49:12;26.60;99.90
16114;DHT22;8161;-33.910;151.156;2022-10-16T06:51:42;26.30;99.90
16114;DHT22;8161;-33.910;151.156;2022-10-16T06:54:09;26.20;99.90
16114;DHT22;8161;-33.910;151.156;2022-10-16T06:56:36;26.10;99.90
16114;DHT22;8161;-33.910;151.156;2022-10-16T06:59:04;26.00;99.90
16114;DHT22;8161;-33.910;151.156;2022-10-16T07:01:32;26.00;99.90
16114;DHT22;8161;-33.910;151.156;2022-10-16T07:04:01;25.90;99.90
16114;DHT22;8161;-33.910;151.156;2022-10-16T07:06:31;25.70;99.90
16114;DHT22;8161;-33.910;151.156;2022-10-16T07:09:02;25.60;99.90
16114;DHT22;8161;-33.910;151.156;2022-10-16T07:11:29;25.40;99.90
16114;DHT22;8161;-33.910;151.156;2022-10-16T07:13:57;25.30;99.90
16114;DHT22;8161;-33.910;151.156;2022-10-16T07:16:28;25.20;99.90
16114;DHT22;8161;-33.910;151.156;2022-10-16T07:18:57;25.00;99.90
16114;DHT22;8161;-33.910;151.156;2022-10-16T07:21:28;24.80;99.90
16114;DHT22;8161;-33.910;151.156;2022-10-16T07:23:58;24.60;99.90
16114;DHT22;8161;-33.910;151.156;2022-10-16T07:26:26;24.40;99.90
16114;DHT22;8161;-33.910;151.156;2022-10-16T07:28:54;24.20;99.90
16114;DHT22;8161;-33.910;151.156;2022-10-16T07:31:21;24.10;99.90
16114;DHT22;8161;-33.910;151.156;2022-10-16T07:33:49;24.00;99.90
16114;DHT22;8161;-33.910;151.156;2022-10-16T07:36:19;23.80;99.90
16114;DHT22;8161;-33.910;151.156;2022-10-16T07:38:47;23.70;99.90
16114;DHT22;8161;-33.910;151.156;2022-10-16T07:41:16;23.60;99.90
16114;DHT22;8161;-33.910;151.156;2022-10-16T07:43:48;23.50;99.90
16114;DHT22;8161;-33.910;151.156;2022-10-16T07:46:17;23.50;99.90
16114;DHT22;8161;-33.910;151.156;2022-10-16T07:48:45;23.40;99.90
16114;DHT22;8161;-33.910;151.156;2022-10-16T07:51:15;23.30;99.90
16114;DHT22;8161;-33.910;151.156;2022-10-16T07:53:43;23.30;99.90
16114;DHT22;8161;-33.910;151.156;2022-10-16T07:56:11;23.20;99.90
16114;DHT22;8161;-33.910;151.156;2022-10-16T07:58:38;23.10;99.90
16114;DHT22;8161;-33.910;151.156;2022-10-16T08:01:10;23.00;99.90
16114;DHT22;8161;-33.910;151.156;2022-10-16T08:03:38;23.00;99.90
16114;DHT22;8161;-33.910;151.156;2022-10-16T08:06:05;22.90;99.90
16114;DHT22;8161;-33.910;151.156;2022-10-16T08:08:32;22.80;99.90
16114;DHT22;8161;-33.910;151.156;2022-10-16T08:11:00;22.60;99.90
16114;DHT22;8161;-33.910;151.156;2022-10-16T08:13:31;22.60;99.90
16114;DHT22;8161;-33.910;151.156;2022-10-16T08:15:58;22.50;99.90
16114;DHT22;8161;-33.910;151.156;2022-10-16T08:18:26;22.40;99.90
16114;DHT22;8161;-33.910;151.156;2022-10-16T08:20:59;22.30;99.90
16114;DHT22;8161;-33.910;151.156;2022-10-16T08:23:27;22.30;99.90
16114;DHT22;8161;-33.910;151.156;2022-10-16T08:25:56;22.20;99.90
16114;DHT22;8161;-33.910;151.156;2022-10-16T08:28:24;22.10;99.90
16114;DHT22;8161;-33.910;151.156;2022-10-16T08:30:51;22.10;99.90
16114;DHT22;8161;-33.910;151.156;2022-10-16T08:33:18;22.10;99.90
16114;DHT22;8161;-33.910;151.156;2022-10-16T08:35:53;22.10;99.90
16114;DHT22;8161;-33.910;151.156;2022-10-16T08:38:21;22.00;99.90
16114;DHT22;8161;-33.910;151.156;2022-10-16T08:40:48;22.00;99.90
16114;DHT22;8161;-33.910;151.156;2022-10-16T08:43:31;22.00;99.90
16114;DHT22;8161;-33.910;151.156;2022-10-16T08:46:31;21.90;99.90
16114;DHT22;8161;-33.910;151.156;2022-10-16T08:48:59;21.80;99.90
16114;DHT22;8161;-33.910;151.156;2022-10-16T08:51:31;21.70;99.90
16114;DHT22;8161;-33.910;151.156;2022-10-16T08:54:10;21.70;99.90
16114;DHT22;8161;-33.910;151.156;2022-10-16T08:56:42;21.70;99.90
16114;DHT22;8161;-33.910;151.156;2022-10-16T08:59:10;21.70;99.90
16114;DHT22;8161;-33.910;151.156;2022-10-16T09:01:45;21.70;99.90
16114;DHT22;8161;-33.910;151.156;2022-10-16T09:07:25;21.60;99.90
16114;DHT22;8161;-33.910;151.156;2022-10-16T09:15:48;21.30;99.90
16114;DHT22;8161;-33.910;151.156;2022-10-16T09:21:14;21.30;99.90
16114;DHT22;8161;-33.910;151.156;2022-10-16T09:23:42;21.30;99.90
16114;DHT22;8161;-33.910;151.156;2022-10-16T09:26:12;21.30;99.90
16114;DHT22;8161;-33.910;151.156;2022-10-16T09:28:40;21.20;99.90
16114;DHT22;8161;-33.910;151.156;2022-10-16T09:31:19;21.30;99.90
16114;DHT22;8161;-33.910;151.156;2022-10-16T09:33:55;21.20;99.90
16114;DHT22;8161;-33.910;151.156;2022-10-16T09:36:26;21.20;99.90
16114;DHT22;8161;-33.910;151.156;2022-10-16T09:39:06;21.20;99.90
16114;DHT22;8161;-33.910;151.156;2022-10-16T09:41:37;21.20;99.90
16114;DHT22;8161;-33.910;151.156;2022-10-16T09:44:15;21.20;99.90
16114;DHT22;8161;-33.910;151.156;2022-10-16T09:46:43;21.20;99.90
16114;DHT22;8161;-33.910;151.156;2022-10-16T09:49:24;21.10;99.90
16114;DHT22;8161;-33.910;151.156;2022-10-16T09:52:11;21.10;99.90
16114;DHT22;8161;-33.910;151.156;2022-10-16T09:54:50;21.10;99.90
16114;DHT22;8161;-33.910;151.156;2022-10-16T09:57:17;21.00;99.90
16114;DHT22;8161;-33.910;151.156;2022-10-16T09:59:56;21.00;99.90
16114;DHT22;8161;-33.910;151.156;2022-10-16T10:02:43;20.80;99.90
16114;DHT22;8161;-33.910;151.156;2022-10-16T10:05:25;20.70;99.90
16114;DHT22;8161;-33.910;151.156;2022-10-16T10:07:58;20.80;99.90
16114;DHT22;8161;-33.910;151.156;2022-10-16T10:10:28;20.50;99.90
16114;DHT22;8161;-33.910;151.156;2022-10-16T10:12:57;20.50;99.90
16114;DHT22;8161;-33.910;151.156;2022-10-16T10:15:25;20.40;99.90
16114;DHT22;8161;-33.910;151.156;2022-10-16T10:17:57;20.50;99.90
16114;DHT22;8161;-33.910;151.156;2022-10-16T10:20:29;20.50;99.90
16114;DHT22;8161;-33.910;151.156;2022-10-16T10:22:59;20.50;99.90
16114;DHT22;8161;-33.910;151.156;2022-10-16T10:28:55;20.50;99.90
16114;DHT22;8161;-33.910;151.156;2022-10-16T10:39:49;20.40;99.90
16114;DHT22;8161;-33.910;151.156;2022-10-16T10:45:16;20.40;99.90
16114;DHT22;8161;-33.910;151.156;2022-10-16T10:50:48;20.30;99.90
16114;DHT22;8161;-33.910;151.156;2022-10-16T10:56:14;20.30;99.90
16114;DHT22;8161;-33.910;151.156;2022-10-16T10:59:16;20.30;99.90
16114;DHT22;8161;-33.910;151.156;2022-10-16T11:01:55;20.30;99.90
16114;DHT22;8161;-33.910;151.156;2022-10-16T11:07:28;20.20;99.90
16114;DHT22;8161;-33.910;151.156;2022-10-16T11:10:03;20.20;99.90
16114;DHT22;8161;-33.910;151.156;2022-10-16T11:12:40;20.20;99.90
16114;DHT22;8161;-33.910;151.156;2022-10-16T11:15:21;20.10;99.90
16114;DHT22;8161;-33.910;151.156;2022-10-16T11:18:03;20.20;99.90
16114;DHT22;8161;-33.910;151.156;2022-10-16T11:20:55;20.20;99.90
16114;DHT22;8161;-33.910;151.156;2022-10-16T11:24:04;20.20;99.90
16114;DHT22;8161;-33.910;151.156;2022-10-16T11:26:38;20.10;99.90
16114;DHT22;8161;-33.910;151.156;2022-10-16T11:29:16;20.10;99.90
16114;DHT22;8161;-33.910;151.156;2022-10-16T11:31:49;20.10;99.90
16114;DHT22;8161;-33.910;151.156;2022-10-16T11:39:44;20.00;99.90
16114;DHT22;8161;-33.910;151.156;2022-10-16T11:42:34;19.90;99.90
16114;DHT22;8161;-33.910;151.156;2022-10-16T11:45:29;19.90;99.90
16114;DHT22;8161;-33.910;151.156;2022-10-16T11:53:42;19.80;99.90
16114;DHT22;8161;-33.910;151.156;2022-10-16T11:56:17;19.80;99.90
16114;DHT22;8161;-33.910;151.156;2022-10-16T11:58:57;19.80;99.90
16114;DHT22;8161;-33.910;151.156;2022-10-16T12:04:32;19.80;99.90
16114;DHT22;8161;-33.910;151.156;2022-10-16T12:07:09;19.70;99.90
16114;DHT22;8161;-33.910;151.156;2022-10-16T12:09:40;19.60;99.90
16114;DHT22;8161;-33.910;151.156;2022-10-16T12:17:43;19.60;99.90
16114;DHT22;8161;-33.910;151.156;2022-10-16T12:20:31;19.60;99.90
16114;DHT22;8161;-33.910;151.156;2022-10-16T12:23:04;19.60;99.90
16114;DHT22;8161;-33.910;151.156;2022-10-16T12:25:36;19.60;99.90
16114;DHT22;8161;-33.910;151.156;2022-10-16T12:28:25;19.60;99.90
16114;DHT22;8161;-33.910;151.156;2022-10-16T12:31:02;19.50;99.90
16114;DHT22;8161;-33.910;151.156;2022-10-16T12:33:37;19.50;99.90
16114;DHT22;8161;-33.910;151.156;2022-10-16T12:36:26;19.50;99.90
16114;DHT22;8161;-33.910;151.156;2022-10-16T12:38:54;19.40;99.90
16114;DHT22;8161;-33.910;151.156;2022-10-16T12:41:33;19.30;99.90
16114;DHT22;8161;-33.910;151.156;2022-10-16T12:44:01;19.30;99.90
16114;DHT22;8161;-33.910;151.156;2022-10-16T12:51:56;19.20;99.90
16114;DHT22;8161;-33.910;151.156;2022-10-16T12:54:30;19.30;99.90
16114;DHT22;8161;-33.910;151.156;2022-10-16T13:00:13;19.10;99.90
16114;DHT22;8161;-33.910;151.156;2022-10-16T13:05:33;19.10;99.90
16114;DHT22;8161;-33.910;151.156;2022-10-16T13:08:23;19.10;99.90
16114;DHT22;8161;-33.910;151.156;2022-10-16T13:11:10;19.10;99.90
16114;DHT22;8161;-33.910;151.156;2022-10-16T13:13:51;19.00;99.90
16114;DHT22;8161;-33.910;151.156;2022-10-16T13:19:00;19.00;99.90
16114;DHT22;8161;-33.910;151.156;2022-10-16T13:27:34;19.00;99.90
16114;DHT22;8161;-33.910;151.156;2022-10-16T13:30:14;18.90;99.90
16114;DHT22;8161;-33.910;151.156;2022-10-16T13:32:46;18.90;99.90
16114;DHT22;8161;-33.910;151.156;2022-10-16T13:35:23;18.90;99.90
16114;DHT22;8161;-33.910;151.156;2022-10-16T13:37:50;18.90;99.90
16114;DHT22;8161;-33.910;151.156;2022-10-16T13:40:25;18.80;99.90
16114;DHT22;8161;-33.910;151.156;2022-10-16T13:42:53;18.80;99.90
16114;DHT22;8161;-33.910;151.156;2022-10-16T13:45:23;18.80;99.90
16114;DHT22;8161;-33.910;151.156;2022-10-16T13:48:05;18.80;99.90
16114;DHT22;8161;-33.910;151.156;2022-10-16T13:50:32;18.80;99.90
16114;DHT22;8161;-33.910;151.156;2022-10-16T13:53:09;18.80;99.90
16114;DHT22;8161;-33.910;151.156;2022-10-16T13:55:40;18.80;99.90
16114;DHT22;8161;-33.910;151.156;2022-10-16T13:58:13;18.80;99.90
16114;DHT22;8161;-33.910;151.156;2022-10-16T14:00:54;18.70;99.90
16114;DHT22;8161;-33.910;151.156;2022-10-16T14:03:22;18.80;99.90
16114;DHT22;8161;-33.910;151.156;2022-10-16T14:05:57;18.80;99.90
16114;DHT22;8161;-33.910;151.156;2022-10-16T14:08:28;18.90;99.90
16114;DHT22;8161;-33.910;151.156;2022-10-16T14:10:59;18.90;99.90
16114;DHT22;8161;-33.910;151.156;2022-10-16T14:16:09;18.90;99.90
16114;DHT22;8161;-33.910;151.156;2022-10-16T14:18:38;18.80;99.90
16114;DHT22;8161;-33.910;151.156;2022-10-16T14:21:11;18.80;99.90
16114;DHT22;8161;-33.910;151.156;2022-10-16T14:23:41;18.80;99.90
16114;DHT22;8161;-33.910;151.156;2022-10-16T14:26:12;18.80;99.90
16114;DHT22;8161;-33.910;151.156;2022-10-16T14:28:43;18.80;99.90
16114;DHT22;8161;-33.910;151.156;2022-10-16T14:31:25;18.80;99.90
16114;DHT22;8161;-33.910;151.156;2022-10-16T14:33:54;18.80;99.90
16114;DHT22;8161;-33.910;151.156;2022-10-16T14:36:22;18.80;99.90
16114;DHT22;8161;-33.910;151.156;2022-10-16T14:39:04;18.80;99.90
16114;DHT22;8161;-33.910;151.156;2022-10-16T14:41:45;18.70;99.90
16114;DHT22;8161;-33.910;151.156;2022-10-16T14:44:13;18.70;99.90
16114;DHT22;8161;-33.910;151.156;2022-10-16T14:46:42;18.70;99.90
16114;DHT22;8161;-33.910;151.156;2022-10-16T14:51:38;18.70;99.90
16114;DHT22;8161;-33.910;151.156;2022-10-16T14:54:15;18.70;99.90
16114;DHT22;8161;-33.910;151.156;2022-10-16T14:59:39;18.70;99.90
16114;DHT22;8161;-33.910;151.156;2022-10-16T15:02:25;18.50;99.90
16114;DHT22;8161;-33.910;151.156;2022-10-16T15:04:54;18.70;99.90
16114;DHT22;8161;-33.910;151.156;2022-10-16T15:07:22;18.70;99.90
16114;DHT22;8161;-33.910;151.156;2022-10-16T15:09:49;18.70;99.90
16114;DHT22;8161;-33.910;151.156;2022-10-16T15:12:18;18.70;99.90
16114;DHT22;8161;-33.910;151.156;2022-10-16T15:14:45;18.70;99.90
16114;DHT22;8161;-33.910;151.156;2022-10-16T15:17:12;18.70;99.90
16114;DHT22;8161;-33.910;151.156;2022-10-16T15:19:40;18.70;99.90
16114;DHT22;8161;-33.910;151.156;2022-10-16T15:22:10;18.70;99.90
16114;DHT22;8161;-33.910;151.156;2022-10-16T15:24:39;18.70;99.90
16114;DHT22;8161;-33.910;151.156;2022-10-16T15:27:06;18.60;99.90
16114;DHT22;8161;-33.910;151.156;2022-10-16T15:29:34;18.60;99.90
16114;DHT22;8161;-33.910;151.156;2022-10-16T15:32:01;18.50;99.90
16114;DHT22;8161;-33.910;151.156;2022-10-16T15:34:29;18.50;99.90
16114;DHT22;8161;-33.910;151.156;2022-10-16T15:36:56;18.50;99.90
16114;DHT22;8161;-33.910;151.156;2022-10-16T15:39:24;18.50;99.90
16114;DHT22;8161;-33.910;151.156;2022-10-16T15:41:52;18.40;99.90
16114;DHT22;8161;-33.910;151.156;2022-10-16T15:44:20;18.40;99.90
16114;DHT22;8161;-33.910;151.156;2022-10-16T15:46:49;18.40;99.90
16114;DHT22;8161;-33.910;151.156;2022-10-16T15:49:16;18.30;99.90
16114;DHT22;8161;-33.910;151.156;2022-10-16T15:51:44;18.30;99.90
16114;DHT22;8161;-33.910;151.156;2022-10-16T15:54:12;18.30;99.90
16114;DHT22;8161;-33.910;151.156;2022-10-16T15:56:39;18.20;99.90
16114;DHT22;8161;-33.910;151.156;2022-10-16T15:59:07;18.20;99.90
16114;DHT22;8161;-33.910;151.156;2022-10-16T16:01:34;18.20;99.90
16114;DHT22;8161;-33.910;151.156;2022-10-16T16:04:02;18.20;99.90
16114;DHT22;8161;-33.910;151.156;2022-10-16T16:06:31;18.20;99.90
16114;DHT22;8161;-33.910;151.156;2022-10-16T16:08:59;18.20;99.90
16114;DHT22;8161;-33.910;151.156;2022-10-16T16:11:27;18.20;99.90
16114;DHT22;8161;-33.910;151.156;2022-10-16T16:13:54;18.20;99.90
16114;DHT22;8161;-33.910;151.156;2022-10-16T16:16:21;18.20;99.90
16114;DHT22;8161;-33.910;151.156;2022-10-16T16:18:50;18.20;99.90
16114;DHT22;8161;-33.910;151.156;2022-10-16T16:21:19;18.10;99.90
16114;DHT22;8161;-33.910;151.156;2022-10-16T16:23:46;18.20;99.90
16114;DHT22;8161;-33.910;151.156;2022-10-16T16:26:28;18.10;99.90
16114;DHT22;8161;-33.910;151.156;2022-10-16T16:29:03;18.20;99.90
16114;DHT22;8161;-33.910;151.156;2022-10-16T16:31:31;18.20;99.90
16114;DHT22;8161;-33.910;151.156;2022-10-16T16:34:00;18.20;99.90
16114;DHT22;8161;-33.910;151.156;2022-10-16T16:36:27;18.20;99.90
16114;DHT22;8161;-33.910;151.156;2022-10-16T16:38:55;18.20;99.90
16114;DHT22;8161;-33.910;151.156;2022-10-16T16:41:25;18.20;99.90
16114;DHT22;8161;-33.910;151.156;2022-10-16T16:43:54;18.20;99.90
16114;DHT22;8161;-33.910;151.156;2022-10-16T16:46:21;18.20;99.90
16114;DHT22;8161;-33.910;151.156;2022-10-16T16:48:49;18.30;99.90
16114;DHT22;8161;-33.910;151.156;2022-10-16T16:51:17;18.20;99.90
16114;DHT22;8161;-33.910;151.156;2022-10-16T16:53:49;18.20;99.90
16114;DHT22;8161;-33.910;151.156;2022-10-16T16:56:17;18.00;99.90
16114;DHT22;8161;-33.910;151.156;2022-10-16T16:58:46;18.00;99.90
16114;DHT22;8161;-33.910;151.156;2022-10-16T17:01:14;18.00;99.90